Kalajoki, Suomi

21. tammikuuta 2018 klo 06:28 (EET) (GMT +0200)
Himanka, Kunnottomanperukka | | Change Station

Kork 10 ft 64.12 °N, 23.59 °E | Updated 59 seconds ago

Täysin pilvistä
Täysin pilvistä
12.7 °F
Tuntuu kuin 13 °F
N
0.0
Tuuli Suunnaltaan vaihteleva Tuuli ilmansuunnasta Etelän ja kaakon välinen
Gusts 2.0 mph

Tänään
Korkea -- | Matala -- °F
--% Sateen mahd.
Eilen
Korkea -- | Matala -- °F
Precip. -- tuumaa
Ilmanpaine 29.89 tuumaa
Näkyvyys 3.1 mailia
Pilviä Pilvistä 2000 ft
Pilvistä 3700 ft
Täysin pilvistä 7000 ft
Tuulen hyytävyys 13 °F
Kastepiste 8 °F
Ilmankosteus 82%
Sademäärä 0.00 tuumaa
Lumensyvyys Ei saatavilla
9:37 AM 3:33 PM
Kasvava sirppi, 15% visible
METAR EFKK 210420Z AUTO 00000KT 5000 -SN BKN020 BKN037 OVC070 M12/M14 Q1012
Ilmanpaine 29.89 tuumaa
Näkyvyys 3.1 mailia
Pilviä Pilvistä 2000 ft
Pilvistä 3700 ft
Täysin pilvistä 7000 ft
Tuulen hyytävyys 13 °F
Kastepiste 8 °F
Ilmankosteus 82%
Sademäärä 0.00 tuumaa
Lumensyvyys Ei saatavilla
9:37 AM 3:33 PM
Kasvava sirppi, 15% visible
METAR EFKK 210420Z AUTO 00000KT 5000 -SN BKN020 BKN037 OVC070 M12/M14 Q1012

Get Severe Weather Alerts

Thanks for signing up!

Be on the lookout for a verification email in your inbox.

You'll start receiving the daily forecast at 6 AM.

×

10-Day Weather Forecast

×

Almanac

Tähtitiede

Jan. 21, 2018 Nousuaika Laskuaika
Valoisa aika
Porvarillinen hämärä
Nauttinen hämärä
Astronominen hämärä
Kuu
Näkyvän valon pituus
Päivän pituus
Tomorrow will be .
, % of the Moon is Illuminated

Tämän päivän ennätykset

Country Highs Country Lows

Community

WunderPhotos

Category 6

Welcome to Category 6. This is the collective home for Weather Underground's featured writeups by Dr. Jeff Masters (right), Bob Henson (left), Chris Burt, and other regular contributors.

Nearby

Ilmanlaatu

  Ilmanlaatu AQ Index Pollutant
Not available.

Lumensyvyys

Station Depth Korkeus

Maanjäristysaktiivisuus

Paikkakunta Distance Mag. Time & Date
Minimum magnitude displayed is 2.5.

Coastal Water Temperatures

Paikka Lämpötila

Stations

Lähimmät sääasemat

Aseman sijainti Lämpötila Tuulen hyytävyys Kastepiste Ilmankosteus Tuuli Precip. Kork Päivitetty Tyyppi